sensor_id;sensor_type;location;lat;lon;timestamp;P1;durP1;ratioP1;P2;durP2;ratioP2
22973;SDS011;11653;50.848;4.584;2022-09-03T00:02:21;3.10;;;1.97;;
22973;SDS011;11653;50.848;4.584;2022-09-03T00:04:59;3.70;;;1.70;;
22973;SDS011;11653;50.848;4.584;2022-09-03T00:07:56;2.93;;;1.97;;
22973;SDS011;11653;50.848;4.584;2022-09-03T00:10:28;3.47;;;2.23;;
22973;SDS011;11653;50.848;4.584;2022-09-03T00:13:22;2.40;;;2.00;;
22973;SDS011;11653;50.848;4.584;2022-09-03T00:15:52;6.63;;;2.13;;
22973;SDS011;11653;50.848;4.584;2022-09-03T00:18:22;3.30;;;2.13;;
22973;SDS011;11653;50.848;4.584;2022-09-03T00:20:57;4.03;;;1.90;;
22973;SDS011;11653;50.848;4.584;2022-09-03T00:23:37;4.00;;;2.13;;
22973;SDS011;11653;50.848;4.584;2022-09-03T00:31:28;3.90;;;2.20;;
22973;SDS011;11653;50.848;4.584;2022-09-03T00:36:48;3.73;;;2.50;;
22973;SDS011;11653;50.848;4.584;2022-09-03T00:39:22;8.87;;;2.47;;
22973;SDS011;11653;50.848;4.584;2022-09-03T00:58:43;5.67;;;2.60;;
22973;SDS011;11653;50.848;4.584;2022-09-03T01:01:28;4.93;;;2.40;;
22973;SDS011;11653;50.848;4.584;2022-09-03T01:09:43;7.57;;;2.50;;
22973;SDS011;11653;50.848;4.584;2022-09-03T01:18:24;5.97;;;2.13;;
22973;SDS011;11653;50.848;4.584;2022-09-03T01:26:42;6.00;;;2.30;;
22973;SDS011;11653;50.848;4.584;2022-09-03T01:32:24;3.43;;;2.03;;
22973;SDS011;11653;50.848;4.584;2022-09-03T01:41:36;3.47;;;2.00;;
22973;SDS011;11653;50.848;4.584;2022-09-03T01:47:09;3.37;;;1.83;;
22973;SDS011;11653;50.848;4.584;2022-09-03T01:52:29;6.00;;;1.90;;
22973;SDS011;11653;50.848;4.584;2022-09-03T01:57:48;2.83;;;2.10;;
22973;SDS011;11653;50.848;4.584;2022-09-03T02:00:20;2.57;;;2.00;;
22973;SDS011;11653;50.848;4.584;2022-09-03T02:02:47;5.57;;;2.20;;
22973;SDS011;11653;50.848;4.584;2022-09-03T02:07:45;2.80;;;2.20;;
22973;SDS011;11653;50.848;4.584;2022-09-03T02:10:18;2.33;;;2.03;;
22973;SDS011;11653;50.848;4.584;2022-09-03T02:12:52;4.33;;;1.90;;
22973;SDS011;11653;50.848;4.584;2022-09-03T02:15:23;4.70;;;2.03;;
22973;SDS011;11653;50.848;4.584;2022-09-03T02:17:52;4.13;;;1.63;;
22973;SDS011;11653;50.848;4.584;2022-09-03T02:20:23;3.03;;;2.07;;
22973;SDS011;11653;50.848;4.584;2022-09-03T02:22:52;4.57;;;2.00;;
22973;SDS011;11653;50.848;4.584;2022-09-03T02:25:20;2.90;;;2.10;;
22973;SDS011;11653;50.848;4.584;2022-09-03T02:27:48;3.77;;;2.07;;
22973;SDS011;11653;50.848;4.584;2022-09-03T02:30:15;4.27;;;2.30;;
22973;SDS011;11653;50.848;4.584;2022-09-03T02:32:42;4.97;;;2.03;;
22973;SDS011;11653;50.848;4.584;2022-09-03T02:35:08;6.07;;;2.43;;
22973;SDS011;11653;50.848;4.584;2022-09-03T02:37:34;5.10;;;1.90;;
22973;SDS011;11653;50.848;4.584;2022-09-03T02:40:00;5.97;;;2.33;;
22973;SDS011;11653;50.848;4.584;2022-09-03T02:42:30;4.10;;;1.80;;
22973;SDS011;11653;50.848;4.584;2022-09-03T02:44:58;2.30;;;1.93;;
22973;SDS011;11653;50.848;4.584;2022-09-03T02:47:29;4.33;;;2.30;;
22973;SDS011;11653;50.848;4.584;2022-09-03T02:49:57;2.33;;;1.90;;
22973;SDS011;11653;50.848;4.584;2022-09-03T02:52:22;6.10;;;2.30;;
22973;SDS011;11653;50.848;4.584;2022-09-03T02:54:48;2.93;;;1.90;;
22973;SDS011;11653;50.848;4.584;2022-09-03T02:57:15;3.97;;;2.17;;
22973;SDS011;11653;50.848;4.584;2022-09-03T02:59:41;4.03;;;2.17;;
22973;SDS011;11653;50.848;4.584;2022-09-03T03:02:11;4.73;;;2.00;;
22973;SDS011;11653;50.848;4.584;2022-09-03T03:04:37;3.77;;;1.90;;
22973;SDS011;11653;50.848;4.584;2022-09-03T03:07:04;3.00;;;2.17;;
22973;SDS011;11653;50.848;4.584;2022-09-03T03:09:30;10.10;;;2.10;;
22973;SDS011;11653;50.848;4.584;2022-09-03T03:11:56;3.07;;;2.20;;
22973;SDS011;11653;50.848;4.584;2022-09-03T03:14:21;6.23;;;2.20;;
22973;SDS011;11653;50.848;4.584;2022-09-03T03:16:48;2.47;;;1.80;;
22973;SDS011;11653;50.848;4.584;2022-09-03T03:19:15;4.90;;;2.10;;
22973;SDS011;11653;50.848;4.584;2022-09-03T03:21:41;3.30;;;2.20;;
22973;SDS011;11653;50.848;4.584;2022-09-03T03:24:07;2.60;;;1.90;;
22973;SDS011;11653;50.848;4.584;2022-09-03T03:26:33;9.40;;;2.47;;
22973;SDS011;11653;50.848;4.584;2022-09-03T03:28:59;2.80;;;2.17;;
22973;SDS011;11653;50.848;4.584;2022-09-03T03:31:28;3.57;;;2.30;;
22973;SDS011;11653;50.848;4.584;2022-09-03T03:33:55;3.73;;;2.50;;
22973;SDS011;11653;50.848;4.584;2022-09-03T03:36:23;4.77;;;2.13;;
22973;SDS011;11653;50.848;4.584;2022-09-03T03:38:52;6.13;;;2.33;;
22973;SDS011;11653;50.848;4.584;2022-09-03T03:41:23;4.57;;;2.10;;
22973;SDS011;11653;50.848;4.584;2022-09-03T03:44:00;6.57;;;2.53;;
22973;SDS011;11653;50.848;4.584;2022-09-03T03:46:28;5.10;;;2.33;;
22973;SDS011;11653;50.848;4.584;2022-09-03T03:48:57;5.80;;;2.27;;
22973;SDS011;11653;50.848;4.584;2022-09-03T03:51:23;2.50;;;2.10;;
22973;SDS011;11653;50.848;4.584;2022-09-03T03:53:52;4.50;;;2.57;;
22973;SDS011;11653;50.848;4.584;2022-09-03T03:56:22;2.70;;;1.90;;
22973;SDS011;11653;50.848;4.584;2022-09-03T03:58:48;4.37;;;2.27;;
22973;SDS011;11653;50.848;4.584;2022-09-03T04:01:24;5.40;;;2.40;;
22973;SDS011;11653;50.848;4.584;2022-09-03T04:03:51;4.43;;;2.00;;
22973;SDS011;11653;50.848;4.584;2022-09-03T04:06:19;3.73;;;2.17;;
22973;SDS011;11653;50.848;4.584;2022-09-03T04:08:46;5.57;;;2.27;;
22973;SDS011;11653;50.848;4.584;2022-09-03T04:11:13;2.23;;;2.00;;
22973;SDS011;11653;50.848;4.584;2022-09-03T04:13:42;2.83;;;2.20;;
22973;SDS011;11653;50.848;4.584;2022-09-03T04:16:09;4.47;;;2.40;;
22973;SDS011;11653;50.848;4.584;2022-09-03T04:18:40;3.67;;;2.20;;
22973;SDS011;11653;50.848;4.584;2022-09-03T04:21:09;2.80;;;2.40;;
22973;SDS011;11653;50.848;4.584;2022-09-03T04:23:40;6.13;;;2.37;;
22973;SDS011;11653;50.848;4.584;2022-09-03T04:26:07;3.33;;;2.43;;
22973;SDS011;11653;50.848;4.584;2022-09-03T04:28:34;4.37;;;2.30;;
22973;SDS011;11653;50.848;4.584;2022-09-03T04:31:04;3.40;;;3.10;;
22973;SDS011;11653;50.848;4.584;2022-09-03T04:33:31;3.97;;;3.00;;
22973;SDS011;11653;50.848;4.584;2022-09-03T04:36:05;3.10;;;2.70;;
22973;SDS011;11653;50.848;4.584;2022-09-03T04:38:34;4.80;;;2.60;;
22973;SDS011;11653;50.848;4.584;2022-09-03T04:41:00;4.23;;;2.60;;
22973;SDS011;11653;50.848;4.584;2022-09-03T04:43:27;4.07;;;2.70;;
22973;SDS011;11653;50.848;4.584;2022-09-03T04:45:57;5.20;;;2.77;;
22973;SDS011;11653;50.848;4.584;2022-09-03T04:48:24;6.30;;;2.90;;
22973;SDS011;11653;50.848;4.584;2022-09-03T04:50:51;5.60;;;3.03;;
22973;SDS011;11653;50.848;4.584;2022-09-03T04:53:17;4.33;;;2.80;;
22973;SDS011;11653;50.848;4.584;2022-09-03T04:55:42;4.47;;;2.70;;
22973;SDS011;11653;50.848;4.584;2022-09-03T04:58:08;6.50;;;2.93;;
22973;SDS011;11653;50.848;4.584;2022-09-03T05:00:37;6.17;;;2.93;;
22973;SDS011;11653;50.848;4.584;2022-09-03T05:03:03;5.20;;;3.13;;
22973;SDS011;11653;50.848;4.584;2022-09-03T05:05:32;7.93;;;3.10;;
22973;SDS011;11653;50.848;4.584;2022-09-03T05:08:01;5.70;;;2.90;;
22973;SDS011;11653;50.848;4.584;2022-09-03T05:10:28;5.07;;;3.40;;
22973;SDS011;11653;50.848;4.584;2022-09-03T05:12:58;4.07;;;3.00;;
22973;SDS011;11653;50.848;4.584;2022-09-03T05:15:26;5.20;;;3.43;;
22973;SDS011;11653;50.848;4.584;2022-09-03T05:17:56;5.03;;;3.43;;
22973;SDS011;11653;50.848;4.584;2022-09-03T05:20:29;5.50;;;3.70;;
22973;SDS011;11653;50.848;4.584;2022-09-03T05:22:59;6.10;;;3.57;;
22973;SDS011;11653;50.848;4.584;2022-09-03T05:25:27;7.60;;;3.80;;
22973;SDS011;11653;50.848;4.584;2022-09-03T05:27:56;3.60;;;3.30;;
22973;SDS011;11653;50.848;4.584;2022-09-03T05:30:22;4.60;;;3.70;;
22973;SDS011;11653;50.848;4.584;2022-09-03T05:32:48;5.50;;;3.50;;
22973;SDS011;11653;50.848;4.584;2022-09-03T05:35:14;7.07;;;4.07;;
22973;SDS011;11653;50.848;4.584;2022-09-03T05:37:39;4.60;;;3.73;;
22973;SDS011;11653;50.848;4.584;2022-09-03T05:40:05;5.30;;;3.70;;
22973;SDS011;11653;50.848;4.584;2022-09-03T05:42:32;6.93;;;3.20;;
22973;SDS011;11653;50.848;4.584;2022-09-03T05:45:01;4.30;;;3.30;;
22973;SDS011;11653;50.848;4.584;2022-09-03T05:47:34;4.03;;;3.10;;
22973;SDS011;11653;50.848;4.584;2022-09-03T05:50:04;4.40;;;3.17;;
22973;SDS011;11653;50.848;4.584;2022-09-03T05:52:34;6.17;;;3.33;;
22973;SDS011;11653;50.848;4.584;2022-09-03T05:55:01;7.63;;;3.23;;
22973;SDS011;11653;50.848;4.584;2022-09-03T05:57:27;5.67;;;2.90;;
22973;SDS011;11653;50.848;4.584;2022-09-03T05:59:54;5.30;;;3.07;;
22973;SDS011;11653;50.848;4.584;2022-09-03T06:02:20;4.50;;;2.87;;
22973;SDS011;11653;50.848;4.584;2022-09-03T06:04:46;4.77;;;2.90;;
22973;SDS011;11653;50.848;4.584;2022-09-03T06:07:12;3.80;;;3.10;;
22973;SDS011;11653;50.848;4.584;2022-09-03T06:09:38;4.07;;;3.37;;
22973;SDS011;11653;50.848;4.584;2022-09-03T06:12:03;7.10;;;3.40;;
22973;SDS011;11653;50.848;4.584;2022-09-03T06:14:29;4.80;;;2.70;;
22973;SDS011;11653;50.848;4.584;2022-09-03T06:16:55;4.60;;;3.33;;
22973;SDS011;11653;50.848;4.584;2022-09-03T06:19:21;4.50;;;2.93;;
22973;SDS011;11653;50.848;4.584;2022-09-03T06:21:46;7.70;;;3.03;;
22973;SDS011;11653;50.848;4.584;2022-09-03T06:24:13;3.57;;;2.90;;
22973;SDS011;11653;50.848;4.584;2022-09-03T06:26:44;3.83;;;3.10;;
22973;SDS011;11653;50.848;4.584;2022-09-03T06:29:10;2.97;;;2.23;;
22973;SDS011;11653;50.848;4.584;2022-09-03T06:31:37;7.50;;;2.60;;
22973;SDS011;11653;50.848;4.584;2022-09-03T06:34:03;4.57;;;1.93;;
22973;SDS011;11653;50.848;4.584;2022-09-03T06:36:30;4.37;;;2.17;;
22973;SDS011;11653;50.848;4.584;2022-09-03T06:38:56;3.17;;;2.40;;
22973;SDS011;11653;50.848;4.584;2022-09-03T06:41:26;2.67;;;2.07;;
22973;SDS011;11653;50.848;4.584;2022-09-03T06:43:59;4.27;;;2.27;;
22973;SDS011;11653;50.848;4.584;2022-09-03T06:46:27;3.23;;;2.10;;
22973;SDS011;11653;50.848;4.584;2022-09-03T06:48:54;4.10;;;2.60;;
22973;SDS011;11653;50.848;4.584;2022-09-03T06:51:24;5.47;;;2.07;;
22973;SDS011;11653;50.848;4.584;2022-09-03T06:53:53;7.83;;;2.10;;
22973;SDS011;11653;50.848;4.584;2022-09-03T06:56:23;7.60;;;2.27;;
22973;SDS011;11653;50.848;4.584;2022-09-03T06:58:53;5.13;;;2.27;;
22973;SDS011;11653;50.848;4.584;2022-09-03T07:01:20;3.80;;;1.90;;
22973;SDS011;11653;50.848;4.584;2022-09-03T07:03:53;7.93;;;2.57;;
22973;SDS011;11653;50.848;4.584;2022-09-03T07:06:25;2.10;;;1.90;;
22973;SDS011;11653;50.848;4.584;2022-09-03T07:08:53;4.63;;;1.83;;
22973;SDS011;11653;50.848;4.584;2022-09-03T07:11:20;4.30;;;2.10;;
22973;SDS011;11653;50.848;4.584;2022-09-03T07:13:48;7.30;;;2.00;;
22973;SDS011;11653;50.848;4.584;2022-09-03T07:16:20;4.77;;;1.77;;
22973;SDS011;11653;50.848;4.584;2022-09-03T07:18:47;3.13;;;1.90;;
22973;SDS011;11653;50.848;4.584;2022-09-03T07:21:23;4.67;;;1.90;;
22973;SDS011;11653;50.848;4.584;2022-09-03T07:23:50;3.60;;;1.90;;
22973;SDS011;11653;50.848;4.584;2022-09-03T07:26:24;2.63;;;1.83;;
22973;SDS011;11653;50.848;4.584;2022-09-03T07:28:51;7.20;;;2.00;;
22973;SDS011;11653;50.848;4.584;2022-09-03T07:31:21;3.10;;;2.30;;
22973;SDS011;11653;50.848;4.584;2022-09-03T07:33:56;5.00;;;2.30;;
22973;SDS011;11653;50.848;4.584;2022-09-03T07:36:28;7.63;;;1.90;;
22973;SDS011;11653;50.848;4.584;2022-09-03T07:38:57;6.03;;;1.73;;
22973;SDS011;11653;50.848;4.584;2022-09-03T07:41:23;3.30;;;1.57;;
22973;SDS011;11653;50.848;4.584;2022-09-03T07:43:51;8.80;;;2.00;;
22973;SDS011;11653;50.848;4.584;2022-09-03T07:46:18;4.43;;;1.60;;
22973;SDS011;11653;50.848;4.584;2022-09-03T07:51:16;5.03;;;1.80;;
22973;SDS011;11653;50.848;4.584;2022-09-03T07:53:43;7.23;;;1.77;;
22973;SDS011;11653;50.848;4.584;2022-09-03T07:56:10;4.47;;;1.60;;
22973;SDS011;11653;50.848;4.584;2022-09-03T07:58:36;4.38;;;1.40;;
22973;SDS011;11653;50.848;4.584;2022-09-03T08:01:07;2.45;;;1.77;;
22973;SDS011;11653;50.848;4.584;2022-09-03T08:03:38;4.38;;;1.80;;
22973;SDS011;11653;50.848;4.584;2022-09-03T08:06:14;4.53;;;1.65;;
22973;SDS011;11653;50.848;4.584;2022-09-03T08:08:42;4.85;;;1.80;;
22973;SDS011;11653;50.848;4.584;2022-09-03T08:11:14;2.15;;;1.55;;
22973;SDS011;11653;50.848;4.584;2022-09-03T08:16:33;3.40;;;1.83;;
22973;SDS011;11653;50.848;4.584;2022-09-03T08:19:00;4.07;;;2.33;;
22973;SDS011;11653;50.848;4.584;2022-09-03T08:21:27;6.20;;;1.90;;
22973;SDS011;11653;50.848;4.584;2022-09-03T08:23:53;3.40;;;1.77;;
22973;SDS011;11653;50.848;4.584;2022-09-03T08:26:26;3.78;;;2.10;;
22973;SDS011;11653;50.848;4.584;2022-09-03T08:28:52;2.83;;;2.17;;
22973;SDS011;11653;50.848;4.584;2022-09-03T08:31:19;3.90;;;1.65;;
22973;SDS011;11653;50.848;4.584;2022-09-03T08:33:51;4.63;;;2.10;;
22973;SDS011;11653;50.848;4.584;2022-09-03T08:36:22;3.78;;;1.80;;
22973;SDS011;11653;50.848;4.584;2022-09-03T08:38:51;2.90;;;1.98;;
22973;SDS011;11653;50.848;4.584;2022-09-03T08:44:13;5.80;;;2.00;;
22973;SDS011;11653;50.848;4.584;2022-09-03T08:49:31;4.90;;;2.45;;
22973;SDS011;11653;50.848;4.584;2022-09-03T08:52:21;2.20;;;2.00;;
22973;SDS011;11653;50.848;4.584;2022-09-03T08:55:26;4.53;;;2.28;;
22973;SDS011;11653;50.848;4.584;2022-09-03T08:57:59;3.67;;;1.88;;
22973;SDS011;11653;50.848;4.584;2022-09-03T09:00:53;4.13;;;2.25;;
22973;SDS011;11653;50.848;4.584;2022-09-03T09:07:04;3.08;;;2.05;;
22973;SDS011;11653;50.848;4.584;2022-09-03T09:09:46;7.60;;;2.40;;
22973;SDS011;11653;50.848;4.584;2022-09-03T09:12:43;3.58;;;2.50;;
22973;SDS011;11653;50.848;4.584;2022-09-03T09:21:27;4.50;;;3.15;;
22973;SDS011;11653;50.848;4.584;2022-09-03T09:24:01;5.40;;;2.72;;
22973;SDS011;11653;50.848;4.584;2022-09-03T09:26:31;5.60;;;2.55;;
22973;SDS011;11653;50.848;4.584;2022-09-03T09:29:07;6.93;;;2.60;;
22973;SDS011;11653;50.848;4.584;2022-09-03T09:31:34;5.15;;;2.60;;
22973;SDS011;11653;50.848;4.584;2022-09-03T09:34:06;3.45;;;2.60;;
22973;SDS011;11653;50.848;4.584;2022-09-03T09:36:36;5.00;;;3.00;;
22973;SDS011;11653;50.848;4.584;2022-09-03T09:39:19;6.60;;;2.97;;
22973;SDS011;11653;50.848;4.584;2022-09-03T09:44:30;4.28;;;2.70;;
22973;SDS011;11653;50.848;4.584;2022-09-03T09:47:03;5.05;;;2.95;;
22973;SDS011;11653;50.848;4.584;2022-09-03T09:52:09;4.80;;;2.80;;
22973;SDS011;11653;50.848;4.584;2022-09-03T09:54:36;5.95;;;2.90;;
22973;SDS011;11653;50.848;4.584;2022-09-03T09:57:04;6.40;;;2.75;;
22973;SDS011;11653;50.848;4.584;2022-09-03T09:59:31;5.00;;;2.75;;
22973;SDS011;11653;50.848;4.584;2022-09-03T10:02:03;6.47;;;3.60;;
22973;SDS011;11653;50.848;4.584;2022-09-03T10:04:33;3.60;;;2.85;;
22973;SDS011;11653;50.848;4.584;2022-09-03T10:07:01;5.22;;;3.17;;
22973;SDS011;11653;50.848;4.584;2022-09-03T10:09:45;5.53;;;2.92;;
22973;SDS011;11653;50.848;4.584;2022-09-03T10:12:23;7.60;;;3.30;;
22973;SDS011;11653;50.848;4.584;2022-09-03T10:20:09;3.88;;;3.38;;
22973;SDS011;11653;50.848;4.584;2022-09-03T10:23:34;4.60;;;3.40;;
22973;SDS011;11653;50.848;4.584;2022-09-03T10:28:32;8.95;;;3.88;;
22973;SDS011;11653;50.848;4.584;2022-09-03T10:33:33;6.65;;;3.72;;
22973;SDS011;11653;50.848;4.584;2022-09-03T10:38:44;9.85;;;4.32;;
22973;SDS011;11653;50.848;4.584;2022-09-03T10:41:19;5.68;;;3.80;;
22973;SDS011;11653;50.848;4.584;2022-09-03T10:44:21;5.82;;;3.97;;
22973;SDS011;11653;50.848;4.584;2022-09-03T10:52:27;6.90;;;3.67;;
22973;SDS011;11653;50.848;4.584;2022-09-03T10:55:15;5.47;;;4.30;;
22973;SDS011;11653;50.848;4.584;2022-09-03T11:00:32;7.10;;;4.35;;
22973;SDS011;11653;50.848;4.584;2022-09-03T11:05:53;7.07;;;4.45;;
22973;SDS011;11653;50.848;4.584;2022-09-03T11:08:47;7.78;;;4.53;;
22973;SDS011;11653;50.848;4.584;2022-09-03T11:11:32;5.47;;;4.32;;
22973;SDS011;11653;50.848;4.584;2022-09-03T11:14:09;9.27;;;4.07;;
22973;SDS011;11653;50.848;4.584;2022-09-03T11:16:44;5.78;;;4.65;;
22973;SDS011;11653;50.848;4.584;2022-09-03T11:19:17;5.70;;;4.40;;
22973;SDS011;11653;50.848;4.584;2022-09-03T11:21:57;6.85;;;3.67;;
22973;SDS011;11653;50.848;4.584;2022-09-03T11:24:24;5.72;;;3.90;;
22973;SDS011;11653;50.848;4.584;2022-09-03T11:26:56;8.48;;;4.22;;
22973;SDS011;11653;50.848;4.584;2022-09-03T11:32:34;5.93;;;4.30;;
22973;SDS011;11653;50.848;4.584;2022-09-03T11:35:27;4.85;;;4.07;;
22973;SDS011;11653;50.848;4.584;2022-09-03T11:38:07;3.72;;;3.22;;
22973;SDS011;11653;50.848;4.584;2022-09-03T11:43:49;5.97;;;3.70;;
22973;SDS011;11653;50.848;4.584;2022-09-03T11:48:48;3.80;;;3.45;;
22973;SDS011;11653;50.848;4.584;2022-09-03T11:51:37;7.53;;;3.88;;
22973;SDS011;11653;50.848;4.584;2022-09-03T11:54:26;4.70;;;3.92;;
22973;SDS011;11653;50.848;4.584;2022-09-03T11:57:09;9.18;;;4.13;;
22973;SDS011;11653;50.848;4.584;2022-09-03T11:59:36;7.47;;;3.97;;
22973;SDS011;11653;50.848;4.584;2022-09-03T12:02:11;6.68;;;3.90;;
22973;SDS011;11653;50.848;4.584;2022-09-03T12:05:02;9.55;;;4.05;;
22973;SDS011;11653;50.848;4.584;2022-09-03T12:10:10;7.53;;;4.50;;
22973;SDS011;11653;50.848;4.584;2022-09-03T12:18:18;8.23;;;4.68;;
22973;SDS011;11653;50.848;4.584;2022-09-03T12:23:28;6.53;;;4.97;;
22973;SDS011;11653;50.848;4.584;2022-09-03T12:26:06;6.32;;;4.53;;
22973;SDS011;11653;50.848;4.584;2022-09-03T12:28:38;5.97;;;4.25;;
22973;SDS011;11653;50.848;4.584;2022-09-03T12:31:06;7.57;;;4.38;;
22973;SDS011;11653;50.848;4.584;2022-09-03T12:33:54;6.38;;;4.18;;
22973;SDS011;11653;50.848;4.584;2022-09-03T12:36:46;6.57;;;4.75;;
22973;SDS011;11653;50.848;4.584;2022-09-03T12:39:14;6.78;;;4.72;;
22973;SDS011;11653;50.848;4.584;2022-09-03T12:44:31;4.60;;;4.20;;
22973;SDS011;11653;50.848;4.584;2022-09-03T12:47:06;10.02;;;4.65;;
22973;SDS011;11653;50.848;4.584;2022-09-03T12:49:43;5.95;;;4.43;;
22973;SDS011;11653;50.848;4.584;2022-09-03T12:54:49;6.13;;;4.43;;
22973;SDS011;11653;50.848;4.584;2022-09-03T12:57:18;9.57;;;4.07;;
22973;SDS011;11653;50.848;4.584;2022-09-03T12:59:54;6.90;;;4.30;;
22973;SDS011;11653;50.848;4.584;2022-09-03T13:03:07;4.97;;;4.47;;
22973;SDS011;11653;50.848;4.584;2022-09-03T13:05:15;6.47;;;3.70;;
22973;SDS011;11653;50.848;4.584;2022-09-03T13:07:48;6.32;;;3.67;;
22973;SDS011;11653;50.848;4.584;2022-09-03T13:10:27;6.88;;;4.10;;
22973;SDS011;11653;50.848;4.584;2022-09-03T13:12:59;4.05;;;3.55;;
22973;SDS011;11653;50.848;4.584;2022-09-03T13:15:28;3.97;;;3.45;;
22973;SDS011;11653;50.848;4.584;2022-09-03T13:23:01;6.35;;;3.50;;
22973;SDS011;11653;50.848;4.584;2022-09-03T13:25:55;3.88;;;3.45;;
22973;SDS011;11653;50.848;4.584;2022-09-03T13:36:48;6.03;;;3.92;;
22973;SDS011;11653;50.848;4.584;2022-09-03T13:39:23;4.22;;;3.60;;
22973;SDS011;11653;50.848;4.584;2022-09-03T13:44:50;5.72;;;3.33;;
22973;SDS011;11653;50.848;4.584;2022-09-03T13:47:45;3.78;;;3.47;;
22973;SDS011;11653;50.848;4.584;2022-09-03T13:50:51;5.30;;;3.47;;
22973;SDS011;11653;50.848;4.584;2022-09-03T13:56:24;7.88;;;3.33;;
22973;SDS011;11653;50.848;4.584;2022-09-03T14:07:25;4.75;;;3.53;;
22973;SDS011;11653;50.848;4.584;2022-09-03T14:13:05;3.67;;;2.88;;
22973;SDS011;11653;50.848;4.584;2022-09-03T14:15:46;3.55;;;2.92;;
22973;SDS011;11653;50.848;4.584;2022-09-03T14:20:58;3.25;;;2.92;;
22973;SDS011;11653;50.848;4.584;2022-09-03T14:23:34;4.72;;;3.03;;
22973;SDS011;11653;50.848;4.584;2022-09-03T14:26:47;3.47;;;3.17;;
22973;SDS011;11653;50.848;4.584;2022-09-03T14:29:14;10.27;;;3.38;;
22973;SDS011;11653;50.848;4.584;2022-09-03T14:39:38;8.73;;;3.05;;
22973;SDS011;11653;50.848;4.584;2022-09-03T14:47:46;4.55;;;3.45;;
22973;SDS011;11653;50.848;4.584;2022-09-03T14:51:06;6.45;;;3.08;;
22973;SDS011;11653;50.848;4.584;2022-09-03T14:53:53;4.68;;;3.13;;
22973;SDS011;11653;50.848;4.584;2022-09-03T14:56:39;4.47;;;2.90;;
22973;SDS011;11653;50.848;4.584;2022-09-03T14:59:18;6.95;;;2.65;;
22973;SDS011;11653;50.848;4.584;2022-09-03T15:10:20;4.00;;;2.70;;
22973;SDS011;11653;50.848;4.584;2022-09-03T15:12:51;3.47;;;2.63;;
22973;SDS011;11653;50.848;4.584;2022-09-03T15:20:49;5.22;;;2.70;;
22973;SDS011;11653;50.848;4.584;2022-09-03T15:31:19;3.03;;;2.28;;
22973;SDS011;11653;50.848;4.584;2022-09-03T15:36:35;4.10;;;2.22;;
22973;SDS011;11653;50.848;4.584;2022-09-03T15:39:09;3.80;;;1.98;;
22973;SDS011;11653;50.848;4.584;2022-09-03T15:44:20;5.18;;;2.78;;
22973;SDS011;11653;50.848;4.584;2022-09-03T15:46:55;3.75;;;2.60;;
22973;SDS011;11653;50.848;4.584;2022-09-03T15:54:57;3.10;;;2.28;;
22973;SDS011;11653;50.848;4.584;2022-09-03T16:00:12;3.22;;;2.60;;
22973;SDS011;11653;50.848;4.584;2022-09-03T16:02:46;2.60;;;2.40;;
22973;SDS011;11653;50.848;4.584;2022-09-03T16:06:02;3.70;;;2.60;;
22973;SDS011;11653;50.848;4.584;2022-09-03T16:11:35;3.63;;;2.60;;
22973;SDS011;11653;50.848;4.584;2022-09-03T16:14:09;5.82;;;2.30;;
22973;SDS011;11653;50.848;4.584;2022-09-03T16:29:53;3.83;;;2.65;;
22973;SDS011;11653;50.848;4.584;2022-09-03T16:32:30;3.33;;;2.67;;
22973;SDS011;11653;50.848;4.584;2022-09-03T16:35:26;3.55;;;2.38;;
22973;SDS011;11653;50.848;4.584;2022-09-03T16:41:07;2.92;;;2.63;;
22973;SDS011;11653;50.848;4.584;2022-09-03T16:44:00;2.83;;;2.53;;
22973;SDS011;11653;50.848;4.584;2022-09-03T16:47:01;4.03;;;2.70;;
22973;SDS011;11653;50.848;4.584;2022-09-03T16:52:44;2.92;;;2.60;;
22973;SDS011;11653;50.848;4.584;2022-09-03T16:58:47;3.70;;;2.00;;
22973;SDS011;11653;50.848;4.584;2022-09-03T17:15:04;2.60;;;1.50;;
22973;SDS011;11653;50.848;4.584;2022-09-03T17:26:30;3.20;;;1.53;;
22973;SDS011;11653;50.848;4.584;2022-09-03T17:31:59;4.27;;;2.00;;
22973;SDS011;11653;50.848;4.584;2022-09-03T17:39:44;3.80;;;2.67;;
22973;SDS011;11653;50.848;4.584;2022-09-03T17:42:22;6.07;;;2.90;;
22973;SDS011;11653;50.848;4.584;2022-09-03T17:50:25;8.37;;;2.63;;
22973;SDS011;11653;50.848;4.584;2022-09-03T17:53:01;2.87;;;2.23;;
22973;SDS011;11653;50.848;4.584;2022-09-03T17:55:41;6.70;;;2.70;;
22973;SDS011;11653;50.848;4.584;2022-09-03T17:58:33;9.20;;;2.80;;
22973;SDS011;11653;50.848;4.584;2022-09-03T18:03:45;3.10;;;2.20;;
22973;SDS011;11653;50.848;4.584;2022-09-03T18:06:34;6.90;;;2.47;;
22973;SDS011;11653;50.848;4.584;2022-09-03T18:09:07;4.03;;;2.20;;
22973;SDS011;11653;50.848;4.584;2022-09-03T18:11:45;3.90;;;1.87;;
22973;SDS011;11653;50.848;4.584;2022-09-03T18:20:08;1.50;;;1.40;;
22973;SDS011;11653;50.848;4.584;2022-09-03T18:26:15;1.63;;;1.50;;
22973;SDS011;11653;50.848;4.584;2022-09-03T18:29:24;2.33;;;1.60;;
22973;SDS011;11653;50.848;4.584;2022-09-03T18:32:16;1.90;;;1.73;;
22973;SDS011;11653;50.848;4.584;2022-09-03T18:35:00;2.43;;;1.53;;
22973;SDS011;11653;50.848;4.584;2022-09-03T18:37:45;2.53;;;1.57;;
22973;SDS011;11653;50.848;4.584;2022-09-03T18:40:32;1.97;;;1.40;;
22973;SDS011;11653;50.848;4.584;2022-09-03T18:43:35;8.00;;;2.60;;
22973;SDS011;11653;50.848;4.584;2022-09-03T18:52:35;5.00;;;2.13;;
22973;SDS011;11653;50.848;4.584;2022-09-03T19:01:47;5.33;;;2.30;;
22973;SDS011;11653;50.848;4.584;2022-09-03T19:04:36;5.13;;;2.00;;
22973;SDS011;11653;50.848;4.584;2022-09-03T19:13:43;5.60;;;1.90;;
22973;SDS011;11653;50.848;4.584;2022-09-03T19:22:36;6.77;;;2.50;;
22973;SDS011;11653;50.848;4.584;2022-09-03T19:25:22;5.33;;;1.90;;
22973;SDS011;11653;50.848;4.584;2022-09-03T19:34:08;5.97;;;2.13;;
22973;SDS011;11653;50.848;4.584;2022-09-03T19:40:02;4.03;;;2.00;;
22973;SDS011;11653;50.848;4.584;2022-09-03T19:45:53;3.37;;;2.20;;
22973;SDS011;11653;50.848;4.584;2022-09-03T19:51:39;2.63;;;2.30;;
22973;SDS011;11653;50.848;4.584;2022-09-03T19:54:33;4.33;;;2.10;;
22973;SDS011;11653;50.848;4.584;2022-09-03T19:57:18;3.30;;;2.33;;
22973;SDS011;11653;50.848;4.584;2022-09-03T20:00:04;2.80;;;2.30;;
22973;SDS011;11653;50.848;4.584;2022-09-03T20:02:49;3.87;;;2.33;;
22973;SDS011;11653;50.848;4.584;2022-09-03T20:05:34;4.23;;;2.97;;
22973;SDS011;11653;50.848;4.584;2022-09-03T20:08:20;2.63;;;2.30;;
22973;SDS011;11653;50.848;4.584;2022-09-03T20:11:08;4.77;;;2.57;;
22973;SDS011;11653;50.848;4.584;2022-09-03T20:13:41;2.60;;;2.20;;
22973;SDS011;11653;50.848;4.584;2022-09-03T20:16:37;3.43;;;2.80;;
22973;SDS011;11653;50.848;4.584;2022-09-03T20:24:22;5.27;;;2.30;;
22973;SDS011;11653;50.848;4.584;2022-09-03T20:27:14;3.53;;;2.43;;
22973;SDS011;11653;50.848;4.584;2022-09-03T20:30:15;7.77;;;2.60;;
22973;SDS011;11653;50.848;4.584;2022-09-03T20:38:28;4.20;;;2.47;;
22973;SDS011;11653;50.848;4.584;2022-09-03T20:55:22;4.27;;;3.00;;
22973;SDS011;11653;50.848;4.584;2022-09-03T20:58:12;3.77;;;3.40;;
22973;SDS011;11653;50.848;4.584;2022-09-03T21:06:44;4.87;;;3.10;;
22973;SDS011;11653;50.848;4.584;2022-09-03T21:12:22;5.73;;;3.37;;
22973;SDS011;11653;50.848;4.584;2022-09-03T21:15:01;5.37;;;3.30;;
22973;SDS011;11653;50.848;4.584;2022-09-03T21:28:24;4.23;;;3.30;;
22973;SDS011;11653;50.848;4.584;2022-09-03T21:30:57;4.50;;;3.30;;
22973;SDS011;11653;50.848;4.584;2022-09-03T21:33:29;6.60;;;3.30;;
22973;SDS011;11653;50.848;4.584;2022-09-03T21:36:41;4.77;;;3.70;;
22973;SDS011;11653;50.848;4.584;2022-09-03T21:38:58;3.80;;;3.10;;
22973;SDS011;11653;50.848;4.584;2022-09-03T21:41:34;3.83;;;3.37;;
22973;SDS011;11653;50.848;4.584;2022-09-03T21:44:07;4.93;;;3.10;;
22973;SDS011;11653;50.848;4.584;2022-09-03T21:46:49;3.77;;;3.47;;
22973;SDS011;11653;50.848;4.584;2022-09-03T21:49:27;3.93;;;3.60;;
22973;SDS011;11653;50.848;4.584;2022-09-03T21:54:32;4.40;;;4.00;;